createdAt,value
2018-05-13T00:02:51.869Z,18.00
2018-05-13T00:05:57.125Z,15.30
2018-05-13T00:09:02.753Z,13.17
2018-05-13T00:12:07.715Z,15.80
2018-05-13T00:15:13.227Z,13.60
2018-05-13T00:18:19.344Z,15.33
2018-05-13T00:21:25.963Z,17.63
2018-05-13T00:24:32.122Z,15.13
2018-05-13T00:27:37.321Z,11.77
2018-05-13T00:30:43.082Z,12.73
2018-05-13T00:33:48.317Z,14.87
2018-05-13T00:36:53.754Z,15.23
2018-05-13T00:40:00.858Z,15.43
2018-05-13T00:43:06.885Z,17.67
2018-05-13T00:46:12.125Z,16.13
2018-05-13T00:49:19.025Z,15.47
2018-05-13T00:52:24.870Z,14.50
2018-05-13T00:55:30.810Z,19.20
2018-05-13T00:58:36.809Z,14.70
2018-05-13T01:01:41.700Z,13.43
2018-05-13T01:04:47.555Z,15.73
2018-05-13T01:07:53.217Z,13.33
2018-05-13T01:10:58.902Z,15.53
2018-05-13T01:14:03.893Z,19.53
2018-05-13T01:17:09.121Z,15.23
2018-05-13T01:20:15.253Z,14.63
2018-05-13T01:23:22.325Z,12.97
2018-05-13T01:26:28.649Z,16.87
2018-05-13T01:29:34.587Z,15.83
2018-05-13T01:32:41.425Z,12.17
2018-05-13T01:35:47.297Z,14.10
2018-05-13T01:38:52.550Z,15.80
2018-05-13T01:41:58.882Z,10.87
2018-05-13T01:45:04.538Z,12.17
2018-05-13T01:48:09.526Z,20.67
2018-05-13T01:51:15.405Z,12.97
2018-05-13T01:54:21.262Z,11.97
2018-05-13T01:57:27.425Z,13.00
2018-05-13T02:00:33.572Z,20.90
2018-05-13T02:03:40.354Z,11.07
2018-05-13T02:06:46.210Z,16.40
2018-05-13T02:09:53.338Z,15.77
2018-05-13T02:13:00.380Z,12.27
2018-05-13T02:16:06.517Z,12.37
2018-05-13T02:19:12.360Z,13.20
2018-05-13T02:22:19.201Z,12.23
2018-05-13T02:25:26.241Z,12.93
2018-05-13T02:28:32.427Z,11.90
2018-05-13T02:31:38.533Z,13.27
2018-05-13T02:34:44.760Z,14.23
2018-05-13T02:37:51.597Z,13.63
2018-05-13T02:40:57.729Z,13.37
2018-05-13T02:44:03.163Z,15.17
2018-05-13T02:47:08.573Z,13.73
2018-05-13T02:50:13.801Z,12.70
2018-05-13T02:53:19.852Z,11.57
2018-05-13T02:56:25.562Z,13.90
2018-05-13T02:59:30.817Z,16.97
2018-05-13T03:02:36.490Z,12.63
2018-05-13T03:05:43.439Z,15.90
2018-05-13T03:08:49.577Z,16.07
2018-05-13T03:11:54.795Z,11.97
2018-05-13T03:15:00.047Z,11.77
2018-05-13T03:18:05.415Z,15.47
2018-05-13T03:21:11.594Z,12.70
2018-05-13T03:24:17.759Z,16.57
2018-05-13T03:27:23.995Z,17.77
2018-05-13T03:30:29.874Z,14.23
2018-05-13T03:33:35.812Z,13.60
2018-05-13T03:36:41.953Z,14.63
2018-05-13T03:39:49.015Z,15.07
2018-05-13T03:42:56.241Z,14.27
2018-05-13T03:46:03.339Z,13.47
2018-05-13T03:49:09.490Z,13.63
2018-05-13T03:52:15.669Z,17.17
2018-05-13T03:55:22.433Z,13.83
2018-05-13T03:58:28.589Z,12.90
2018-05-13T04:01:33.812Z,20.30
2018-05-13T04:04:39.070Z,13.03
2018-05-13T04:11:46.442Z,18.13
2018-05-13T04:15:02.403Z,13.30
2018-05-13T04:18:08.246Z,15.63
2018-05-13T04:21:15.415Z,14.30
2018-05-13T04:24:22.146Z,13.87
2018-05-13T04:27:29.189Z,14.63
2018-05-13T04:30:35.325Z,17.70
2018-05-13T04:33:41.580Z,13.77
2018-05-13T04:36:47.620Z,13.07
2018-05-13T04:39:53.472Z,16.60
2018-05-13T04:42:59.661Z,16.60
2018-05-13T04:46:04.862Z,13.37
2018-05-13T04:49:10.086Z,15.53
2018-05-13T04:52:16.258Z,13.73
2018-05-13T04:55:22.822Z,14.20
2018-05-13T04:58:29.078Z,15.63
2018-05-13T05:01:35.421Z,16.33
2018-05-13T05:04:41.562Z,19.37
2018-05-13T05:07:48.612Z,11.93
2018-05-13T05:10:54.758Z,14.43
2018-05-13T05:14:00.108Z,16.87
2018-05-13T05:17:05.348Z,16.00
2018-05-13T05:20:11.596Z,15.80
2018-05-13T05:23:17.762Z,16.90
2018-05-13T05:26:23.900Z,13.73
2018-05-13T05:29:30.458Z,14.03
2018-05-13T05:32:36.622Z,16.57
2018-05-13T05:35:42.814Z,14.27
2018-05-13T05:38:49.948Z,14.60
2018-05-13T05:41:56.977Z,16.83
2018-05-13T05:45:02.666Z,17.10
2018-05-13T05:48:07.895Z,13.23
2018-05-13T05:51:14.055Z,12.33
2018-05-13T05:54:20.234Z,12.90
2018-05-13T05:57:25.482Z,16.80
2018-05-13T06:00:31.633Z,15.23
2018-05-13T06:03:36.857Z,15.87
2018-05-13T06:06:42.098Z,13.20
2018-05-13T06:09:47.325Z,15.77
2018-05-13T06:12:52.548Z,12.30
2018-05-13T06:16:00.565Z,14.60
2018-05-13T06:19:05.958Z,14.13
2018-05-13T06:22:12.113Z,20.07
2018-05-13T06:25:17.871Z,16.13
2018-05-13T06:28:23.222Z,15.03
2018-05-13T06:31:29.557Z,17.57
2018-05-13T06:34:36.710Z,12.93
2018-05-13T06:37:43.437Z,13.80
2018-05-13T06:40:49.606Z,15.23
2018-05-13T06:43:54.845Z,14.80
2018-05-13T06:47:01.002Z,16.13
2018-05-13T06:50:07.150Z,15.90
2018-05-13T06:53:13.483Z,19.57
2018-05-13T06:56:18.434Z,13.00
2018-05-13T06:59:23.710Z,20.07
2018-05-13T07:02:28.929Z,15.50
2018-05-13T07:05:33.889Z,18.57
2018-05-13T07:08:39.105Z,20.70
2018-05-13T07:11:44.341Z,17.57
2018-05-13T07:14:49.582Z,14.80
2018-05-13T07:17:54.843Z,20.93
2018-05-13T07:21:00.089Z,15.20
2018-05-13T07:24:06.090Z,18.80
2018-05-13T07:27:11.923Z,17.03
2018-05-13T07:30:17.571Z,16.33
2018-05-13T07:33:24.602Z,16.57
2018-05-13T07:36:31.655Z,17.17
2018-05-13T07:39:38.838Z,13.53
2018-05-13T07:42:44.404Z,20.27
2018-05-13T07:45:50.592Z,16.87
2018-05-13T07:48:56.724Z,15.40
2018-05-13T07:52:02.860Z,20.37
2018-05-13T07:55:08.087Z,13.77
2018-05-13T07:58:13.305Z,18.03
2018-05-13T08:01:18.549Z,16.60
2018-05-13T08:04:23.748Z,19.13
2018-05-13T08:07:28.997Z,18.10
2018-05-13T08:10:34.256Z,18.40
2018-05-13T08:13:40.122Z,16.83
2018-05-13T08:16:45.342Z,18.23
2018-05-13T08:19:50.562Z,16.10
2018-05-13T08:22:56.414Z,16.27
2018-05-13T08:26:03.496Z,16.80
2018-05-13T08:29:09.638Z,25.73
2018-05-13T08:32:15.582Z,22.27
2018-05-13T08:35:21.727Z,17.03
2018-05-13T08:38:27.882Z,20.57
2018-05-13T08:41:34.541Z,14.17
2018-05-13T08:44:40.418Z,14.90
2018-05-13T08:47:46.578Z,18.83
2018-05-13T08:50:51.810Z,19.17
2018-05-13T08:53:57.086Z,17.90
2018-05-13T08:57:02.473Z,16.90
2018-05-13T09:00:09.525Z,17.67
2018-05-13T09:03:15.653Z,27.90
2018-05-13T09:06:20.877Z,25.83
2018-05-13T09:09:26.102Z,19.93
2018-05-13T09:12:32.193Z,16.70
2018-05-13T09:15:38.229Z,19.30
2018-05-13T09:18:45.290Z,17.27
2018-05-13T09:21:52.019Z,17.03
2018-05-13T09:24:57.670Z,17.80
2018-05-13T09:28:03.608Z,17.00
2018-05-13T09:31:08.839Z,20.80
2018-05-13T09:34:14.977Z,16.50
2018-05-13T09:37:22.017Z,21.27
2018-05-13T09:40:28.078Z,17.17
2018-05-13T09:43:34.210Z,19.57
2018-05-13T09:46:41.286Z,20.23
2018-05-13T09:49:47.356Z,25.53
2018-05-13T09:52:53.509Z,19.30
2018-05-13T09:55:59.672Z,22.47
2018-05-13T09:59:05.812Z,20.80
2018-05-13T10:02:12.769Z,18.60
2018-05-13T10:05:18.646Z,18.90
2018-05-13T10:08:23.861Z,19.77
2018-05-13T10:11:29.085Z,18.03
2018-05-13T10:14:34.308Z,21.27
2018-05-13T10:17:40.461Z,22.67
2018-05-13T10:20:45.690Z,23.53
2018-05-13T10:23:50.687Z,20.87
2018-05-13T10:26:56.739Z,19.80
2018-05-13T10:30:02.177Z,22.10
2018-05-13T10:33:08.514Z,17.13
2018-05-13T10:36:14.634Z,28.80
2018-05-13T10:39:20.852Z,21.07
2018-05-13T10:42:26.823Z,28.63
2018-05-13T10:45:32.041Z,18.63
2018-05-13T10:48:39.261Z,18.53
2018-05-13T10:51:46.108Z,24.13
2018-05-13T10:54:52.291Z,22.47
2018-05-13T10:57:58.457Z,24.37
2018-05-13T11:01:03.471Z,22.10
2018-05-13T11:04:08.415Z,20.90
2018-05-13T11:07:14.042Z,20.93
2018-05-13T11:10:19.983Z,20.93
2018-05-13T11:13:26.151Z,19.70
2018-05-13T11:16:31.149Z,21.93
2018-05-13T11:19:36.370Z,20.57
2018-05-13T11:22:43.564Z,22.57
2018-05-13T11:25:49.893Z,22.80
2018-05-13T11:28:56.446Z,22.43
2018-05-13T11:32:02.650Z,22.47
2018-05-13T11:35:07.911Z,30.97
2018-05-13T11:38:14.036Z,20.80
2018-05-13T11:41:19.258Z,19.53
2018-05-13T11:44:24.485Z,20.87
2018-05-13T11:47:29.746Z,21.10
2018-05-13T11:50:35.868Z,26.87
2018-05-13T11:53:41.521Z,24.13
2018-05-13T11:56:47.691Z,20.70
2018-05-13T11:59:52.933Z,18.50
2018-05-13T12:02:59.075Z,24.90
2018-05-13T12:06:05.915Z,22.90
2018-05-13T12:09:12.050Z,21.30
2018-05-13T12:12:17.925Z,18.90
2018-05-13T12:15:23.574Z,18.70
2018-05-13T12:18:28.800Z,19.53
2018-05-13T12:21:34.030Z,23.30
2018-05-13T12:24:39.260Z,17.80
2018-05-13T12:27:45.413Z,25.10
2018-05-13T12:30:51.551Z,16.20
2018-05-13T12:33:56.789Z,20.90
2018-05-13T12:37:02.020Z,15.30
2018-05-13T12:40:07.247Z,14.27
2018-05-13T12:43:12.499Z,21.27
2018-05-13T12:46:17.726Z,24.00
2018-05-13T12:49:24.155Z,17.00
2018-05-13T12:52:29.998Z,16.57
2018-05-13T12:55:35.230Z,15.70
2018-05-13T12:58:41.081Z,12.90
2018-05-13T13:01:46.026Z,16.90
2018-05-13T13:04:51.765Z,13.77
2018-05-13T13:07:58.002Z,15.03
2018-05-13T13:11:04.164Z,20.60
2018-05-13T13:14:09.118Z,20.03
2018-05-13T13:17:14.358Z,13.00
2018-05-13T13:20:21.342Z,11.30
2018-05-13T13:23:27.473Z,16.53
2018-05-13T13:26:33.649Z,13.67
2018-05-13T13:29:40.630Z,10.37
2018-05-13T13:32:47.371Z,12.80
2018-05-13T13:35:52.367Z,14.20
2018-05-13T13:38:57.585Z,14.53
2018-05-13T13:42:02.529Z,10.37
2018-05-13T13:45:07.178Z,15.27
2018-05-13T13:48:13.081Z,11.37
2018-05-13T13:51:18.730Z,9.03
2018-05-13T13:54:25.783Z,11.70
2018-05-13T13:57:33.835Z,12.57
2018-05-13T14:00:39.659Z,15.50
2018-05-13T14:03:44.884Z,15.60
2018-05-13T14:06:51.056Z,11.20
2018-05-13T14:09:58.201Z,14.60
2018-05-13T14:13:03.759Z,15.40
2018-05-13T14:16:09.029Z,22.10
2018-05-13T14:19:14.272Z,14.97
2018-05-13T14:22:19.494Z,11.90
2018-05-13T14:25:25.338Z,11.87
2018-05-13T14:28:31.461Z,10.40
2018-05-13T14:31:37.707Z,8.10
2018-05-13T14:34:44.509Z,9.60
2018-05-13T14:37:49.726Z,26.03
2018-05-13T14:40:56.722Z,12.17
2018-05-13T14:44:02.895Z,8.73
2018-05-13T14:47:08.727Z,6.73
2018-05-13T14:50:13.973Z,11.63
2018-05-13T14:53:18.953Z,7.97
2018-05-13T14:56:24.160Z,6.80
2018-05-13T14:59:29.785Z,8.47
2018-05-13T15:02:35.929Z,8.03
2018-05-13T15:05:41.957Z,9.87
2018-05-13T15:08:47.491Z,6.50
2018-05-13T15:11:53.596Z,9.43
2018-05-13T15:14:59.736Z,9.70
2018-05-13T15:18:05.138Z,7.00
2018-05-13T15:21:11.245Z,7.60
2018-05-13T15:24:17.378Z,12.00
2018-05-13T15:27:22.608Z,5.40
2018-05-13T15:30:28.778Z,10.70
2018-05-13T15:33:35.048Z,6.83
2018-05-13T15:36:40.688Z,13.03
2018-05-13T15:39:45.904Z,6.10
2018-05-13T15:42:51.297Z,5.00
2018-05-13T15:45:56.525Z,9.53
2018-05-13T15:49:01.789Z,4.87
2018-05-13T15:52:07.110Z,7.77
2018-05-13T15:55:12.388Z,5.83
2018-05-13T15:58:17.453Z,7.20
2018-05-13T16:01:23.993Z,18.93
2018-05-13T16:04:30.129Z,7.90
2018-05-13T16:07:37.162Z,14.40
2018-05-13T16:13:51.163Z,6.90
2018-05-13T16:16:57.274Z,6.63
2018-05-13T16:20:03.215Z,15.27
2018-05-13T16:23:09.142Z,7.60
2018-05-13T16:26:15.983Z,5.97
2018-05-13T16:29:22.118Z,5.67
2018-05-13T16:32:28.272Z,5.07
2018-05-13T16:35:35.143Z,5.93
2018-05-13T16:38:40.893Z,5.50
2018-05-13T16:41:45.865Z,5.93
2018-05-13T16:44:51.939Z,7.17
2018-05-13T16:47:57.571Z,7.30
2018-05-13T16:51:03.977Z,8.20
2018-05-13T16:54:09.308Z,5.93
2018-05-13T16:57:14.243Z,5.40
2018-05-13T17:00:19.460Z,13.60
2018-05-13T17:03:24.669Z,6.17
2018-05-13T17:06:29.886Z,5.30
2018-05-13T17:09:34.825Z,5.13
2018-05-13T17:12:40.246Z,3.80
2018-05-13T17:15:45.185Z,6.23
2018-05-13T17:18:50.646Z,15.43
2018-05-13T17:21:56.498Z,5.17
2018-05-13T17:25:02.355Z,6.93
2018-05-13T17:28:07.793Z,3.03
2018-05-13T17:31:13.641Z,5.83
2018-05-13T17:34:19.761Z,2.93
2018-05-13T17:37:25.568Z,4.13
2018-05-13T17:40:31.797Z,5.50
2018-05-13T17:43:37.656Z,4.73
2018-05-13T17:46:43.263Z,10.50
2018-05-13T17:49:50.184Z,7.10
2018-05-13T17:52:55.797Z,2.47
2018-05-13T17:56:01.651Z,3.17
2018-05-13T17:59:07.335Z,7.33
2018-05-13T18:02:12.561Z,2.87
2018-05-13T18:05:17.497Z,3.90
2018-05-13T18:08:22.470Z,2.80
2018-05-13T18:11:27.925Z,4.73
2018-05-13T18:14:33.864Z,9.57
2018-05-13T18:17:38.772Z,2.30
2018-05-13T18:20:45.344Z,5.73
2018-05-13T18:23:51.480Z,4.93
2018-05-13T18:26:58.464Z,3.40
2018-05-13T18:30:03.409Z,7.40
2018-05-13T18:33:08.340Z,8.13
2018-05-13T18:36:13.833Z,7.90
2018-05-13T18:39:18.825Z,2.83
2018-05-13T18:42:23.919Z,3.53
2018-05-13T18:45:29.783Z,2.53
2018-05-13T18:48:35.173Z,4.50
2018-05-13T18:51:40.159Z,12.43
2018-05-13T18:54:45.125Z,10.20
2018-05-13T18:57:51.003Z,11.03
2018-05-13T19:00:56.444Z,4.73
2018-05-13T19:04:01.504Z,5.77
2018-05-13T19:07:06.460Z,10.03
2018-05-13T19:10:12.343Z,7.00
2018-05-13T19:13:17.614Z,4.10
2018-05-13T19:16:24.412Z,6.63
2018-05-13T19:19:29.494Z,9.07
2018-05-13T19:22:34.991Z,4.50
2018-05-13T19:25:40.897Z,15.33
2018-05-13T19:28:45.855Z,3.67
2018-05-13T19:31:51.813Z,3.97
2018-05-13T19:34:57.693Z,5.13
2018-05-13T19:38:03.657Z,4.17
2018-05-13T19:41:08.634Z,7.23
2018-05-13T19:44:14.521Z,6.13
2018-05-13T19:47:20.432Z,3.30
2018-05-13T19:50:26.334Z,5.47
2018-05-13T19:53:32.177Z,9.23
2018-05-13T19:56:37.701Z,5.47
2018-05-13T19:59:43.525Z,9.93
2018-05-13T20:02:49.595Z,7.27
2018-05-13T20:05:55.449Z,4.47
2018-05-13T20:09:01.180Z,7.30
2018-05-13T20:12:06.302Z,3.67
2018-05-13T20:15:11.234Z,5.00
2018-05-13T20:18:16.906Z,4.83
2018-05-13T20:21:22.046Z,12.17
2018-05-13T20:24:26.976Z,3.50
2018-05-13T20:27:32.827Z,5.63
2018-05-13T20:30:39.421Z,6.60
2018-05-13T20:33:45.280Z,5.20
2018-05-13T20:36:50.209Z,2.83
2018-05-13T20:39:55.235Z,6.93
2018-05-13T20:43:00.232Z,3.80
2018-05-13T20:46:06.165Z,5.50
2018-05-13T20:49:11.761Z,3.33
2018-05-13T20:52:17.635Z,17.63
2018-05-13T20:55:23.493Z,3.40
2018-05-13T20:58:29.358Z,6.80
2018-05-13T21:01:35.217Z,6.10
2018-05-13T21:04:40.453Z,4.20
2018-05-13T21:07:46.292Z,3.00
2018-05-13T21:10:51.317Z,13.83
2018-05-13T21:13:56.714Z,4.30
2018-05-13T21:17:02.606Z,6.43
2018-05-13T21:20:08.042Z,4.07
2018-05-13T21:23:12.991Z,9.63
2018-05-13T21:26:18.822Z,3.50
2018-05-13T21:29:24.677Z,3.57
2018-05-13T21:32:29.603Z,4.93
2018-05-13T21:35:34.542Z,3.53
2018-05-13T21:38:39.473Z,3.83
2018-05-13T21:41:45.320Z,4.93
2018-05-13T21:44:50.753Z,4.50
2018-05-13T21:47:55.998Z,3.37
2018-05-13T21:51:02.801Z,9.63
2018-05-13T21:54:08.659Z,3.47
2018-05-13T21:57:14.543Z,3.83
2018-05-13T22:00:19.733Z,5.17
2018-05-13T22:03:25.530Z,5.63
2018-05-13T22:06:31.394Z,3.53
2018-05-13T22:09:37.239Z,8.10
2018-05-13T22:12:43.112Z,4.87
2018-05-13T22:15:48.839Z,3.87
2018-05-13T22:18:54.018Z,4.43
2018-05-13T22:21:58.966Z,4.37
2018-05-13T22:25:04.418Z,5.40
2018-05-13T22:28:10.305Z,4.70
2018-05-13T22:31:15.266Z,8.73
2018-05-13T22:34:21.663Z,5.30
2018-05-13T22:37:28.489Z,5.37
2018-05-13T22:40:34.366Z,4.63
2018-05-13T22:43:40.227Z,4.23
2018-05-13T22:46:45.214Z,4.50
2018-05-13T22:49:51.100Z,12.07
2018-05-13T22:52:57.863Z,3.33
2018-05-13T22:56:04.381Z,3.67
2018-05-13T22:59:09.318Z,4.17
2018-05-13T23:02:15.163Z,6.17
2018-05-13T23:05:20.398Z,14.00
2018-05-13T23:08:26.635Z,3.50
2018-05-13T23:11:31.879Z,5.33
2018-05-13T23:14:37.081Z,4.13
2018-05-13T23:17:42.315Z,5.43
2018-05-13T23:20:47.565Z,3.97
2018-05-13T23:23:53.676Z,3.17
2018-05-13T23:26:59.386Z,5.97
2018-05-13T23:30:05.316Z,4.63
2018-05-13T23:33:11.253Z,5.03
2018-05-13T23:36:18.002Z,4.50
2018-05-13T23:39:23.631Z,6.70
2018-05-13T23:42:29.574Z,7.20
2018-05-13T23:45:34.781Z,6.30
2018-05-13T23:48:39.993Z,4.13
2018-05-13T23:51:47.137Z,9.70
2018-05-13T23:54:54.279Z,5.80
2018-05-13T23:58:00.109Z,4.23
